sensor_id;sensor_type;location;lat;lon;timestamp;pressure;altitude;pressure_sealevel;temperature;humidity
47742;BME280;33504;52.066;6.096;2022-08-11T00:01:07;102261.34;;;22.74;32.46
47742;BME280;33504;52.066;6.096;2022-08-11T00:03:41;102263.46;;;22.28;32.46
47742;BME280;33504;52.066;6.096;2022-08-11T00:06:09;102261.39;;;22.68;32.48
47742;BME280;33504;52.066;6.096;2022-08-11T00:08:37;102263.33;;;22.63;32.56
47742;BME280;33504;52.066;6.096;2022-08-11T00:11:07;102260.05;;;22.34;32.59
47742;BME280;33504;52.066;6.096;2022-08-11T00:13:37;102260.89;;;22.50;32.53
47742;BME280;33504;52.066;6.096;2022-08-11T00:16:13;102261.03;;;22.43;32.63
47742;BME280;33504;52.066;6.096;2022-08-11T00:18:42;102265.33;;;22.37;32.75
47742;BME280;33504;52.066;6.096;2022-08-11T00:21:11;102265.19;;;22.28;32.88
47742;BME280;33504;52.066;6.096;2022-08-11T00:23:41;102264.61;;;22.21;33.01
47742;BME280;33504;52.066;6.096;2022-08-11T00:26:11;102262.51;;;22.39;33.18
47742;BME280;33504;52.066;6.096;2022-08-11T00:28:40;102264.40;;;22.08;33.12
47742;BME280;33504;52.066;6.096;2022-08-11T00:31:10;102265.74;;;22.06;33.21
47742;BME280;33504;52.066;6.096;2022-08-11T00:33:39;102265.68;;;21.98;33.29
47742;BME280;33504;52.066;6.096;2022-08-11T00:36:08;102268.16;;;22.18;33.32
47742;BME280;33504;52.066;6.096;2022-08-11T00:38:38;102266.61;;;22.11;33.45
47742;BME280;33504;52.066;6.096;2022-08-11T00:41:15;102265.93;;;21.74;33.62
47742;BME280;33504;52.066;6.096;2022-08-11T00:43:54;102270.98;;;22.17;33.72
47742;BME280;33504;52.066;6.096;2022-08-11T00:46:38;102271.33;;;21.89;33.79
47742;BME280;33504;52.066;6.096;2022-08-11T00:49:15;102270.63;;;21.85;33.84
47742;BME280;33504;52.066;6.096;2022-08-11T00:51:54;102271.43;;;22.02;33.88
47742;BME280;33504;52.066;6.096;2022-08-11T00:54:44;102270.89;;;21.74;33.81
47742;BME280;33504;52.066;6.096;2022-08-11T00:57:32;102272.20;;;21.93;33.80
47742;BME280;33504;52.066;6.096;2022-08-11T01:00:11;102270.04;;;21.91;33.80
47742;BME280;33504;52.066;6.096;2022-08-11T01:02:52;102270.30;;;21.92;33.81
47742;BME280;33504;52.066;6.096;2022-08-11T01:05:50;102270.90;;;21.67;33.83
47742;BME280;33504;52.066;6.096;2022-08-11T01:08:41;102270.03;;;21.85;33.89
47742;BME280;33504;52.066;6.096;2022-08-11T01:11:25;102269.15;;;21.83;33.95
47742;BME280;33504;52.066;6.096;2022-08-11T01:15:13;102266.99;;;22.46;34.03
47742;BME280;33504;52.066;6.096;2022-08-11T01:18:43;102268.25;;;22.18;34.21
47742;BME280;33504;52.066;6.096;2022-08-11T01:21:42;102266.91;;;21.15;34.28
47742;BME280;33504;52.066;6.096;2022-08-11T01:24:45;102264.81;;;21.62;34.31
47742;BME280;33504;52.066;6.096;2022-08-11T01:27:31;102265.00;;;21.61;34.42
47742;BME280;33504;52.066;6.096;2022-08-11T01:30:29;102262.31;;;21.54;34.61
47742;BME280;33504;52.066;6.096;2022-08-11T01:34:11;102266.23;;;21.27;34.60
47742;BME280;33504;52.066;6.096;2022-08-11T01:36:54;102267.85;;;21.45;34.67
47742;BME280;33504;52.066;6.096;2022-08-11T01:39:50;102264.82;;;21.23;34.74
47742;BME280;33504;52.066;6.096;2022-08-11T01:42:52;102267.29;;;21.39;34.87
47742;BME280;33504;52.066;6.096;2022-08-11T01:45:31;102266.57;;;21.36;34.96
47742;BME280;33504;52.066;6.096;2022-08-11T01:48:05;102270.21;;;21.34;34.91
47742;BME280;33504;52.066;6.096;2022-08-11T01:51:16;102271.30;;;22.04;34.99
47742;BME280;33504;52.066;6.096;2022-08-11T01:53:53;102275.45;;;21.26;35.13
47742;BME280;33504;52.066;6.096;2022-08-11T01:56:32;102274.50;;;21.25;35.15
47742;BME280;33504;52.066;6.096;2022-08-11T01:59:12;102276.02;;;21.22;35.23
47742;BME280;33504;52.066;6.096;2022-08-11T02:01:53;102277.60;;;21.18;35.27
47742;BME280;33504;52.066;6.096;2022-08-11T02:04:30;102278.96;;;21.12;35.49
47742;BME280;33504;52.066;6.096;2022-08-11T02:07:07;102278.92;;;20.89;35.59
47742;BME280;33504;52.066;6.096;2022-08-11T02:09:46;102272.78;;;21.05;35.65
47742;BME280;33504;52.066;6.096;2022-08-11T02:12:31;102269.53;;;20.80;35.77
47742;BME280;33504;52.066;6.096;2022-08-11T02:15:11;102272.51;;;21.23;35.89
47742;BME280;33504;52.066;6.096;2022-08-11T02:17:55;102272.76;;;20.96;36.11
47742;BME280;33504;52.066;6.096;2022-08-11T02:20:26;102274.43;;;20.92;36.22
47742;BME280;33504;52.066;6.096;2022-08-11T02:22:59;102271.90;;;20.92;36.35
47742;BME280;33504;52.066;6.096;2022-08-11T02:25:33;102266.48;;;21.18;36.46
47742;BME280;33504;52.066;6.096;2022-08-11T02:28:09;102265.26;;;20.86;36.44
47742;BME280;33504;52.066;6.096;2022-08-11T02:30:45;102262.89;;;20.82;36.58
47742;BME280;33504;52.066;6.096;2022-08-11T02:33:23;102263.00;;;20.76;36.72
47742;BME280;33504;52.066;6.096;2022-08-11T02:35:58;102264.73;;;20.70;36.94
47742;BME280;33504;52.066;6.096;2022-08-11T02:38:32;102263.34;;;20.64;37.17
47742;BME280;33504;52.066;6.096;2022-08-11T02:41:09;102258.57;;;20.57;37.49
47742;BME280;33504;52.066;6.096;2022-08-11T02:43:46;102257.57;;;21.09;37.17
47742;BME280;33504;52.066;6.096;2022-08-11T02:46:21;102255.36;;;20.58;37.38
47742;BME280;33504;52.066;6.096;2022-08-11T02:48:58;102254.40;;;20.83;37.48
47742;BME280;33504;52.066;6.096;2022-08-11T02:51:50;102257.18;;;20.52;37.85
47742;BME280;33504;52.066;6.096;2022-08-11T02:54:26;102262.36;;;20.48;37.73
47742;BME280;33504;52.066;6.096;2022-08-11T02:57:03;102263.37;;;20.46;37.99
47742;BME280;33504;52.066;6.096;2022-08-11T02:59:42;102261.00;;;20.45;38.08
47742;BME280;33504;52.066;6.096;2022-08-11T03:02:19;102264.88;;;20.70;38.11
47742;BME280;33504;52.066;6.096;2022-08-11T03:05:00;102264.13;;;20.42;38.11
47742;BME280;33504;52.066;6.096;2022-08-11T03:07:33;102263.49;;;20.66;38.18
47742;BME280;33504;52.066;6.096;2022-08-11T03:10:12;102261.18;;;20.65;38.23
47742;BME280;33504;52.066;6.096;2022-08-11T03:12:48;102263.50;;;20.62;38.29
47742;BME280;33504;52.066;6.096;2022-08-11T03:15:21;102261.93;;;20.60;38.42
47742;BME280;33504;52.066;6.096;2022-08-11T03:18:00;102258.13;;;20.31;38.44
47742;BME280;33504;52.066;6.096;2022-08-11T03:20:35;102259.60;;;20.74;38.58
47742;BME280;33504;52.066;6.096;2022-08-11T03:23:10;102261.92;;;20.14;38.70
47742;BME280;33504;52.066;6.096;2022-08-11T03:25:48;102259.17;;;20.34;38.82
47742;BME280;33504;52.066;6.096;2022-08-11T03:28:28;102261.11;;;20.51;38.91
47742;BME280;33504;52.066;6.096;2022-08-11T03:31:07;102264.19;;;20.44;38.93
47742;BME280;33504;52.066;6.096;2022-08-11T03:33:40;102264.06;;;20.39;39.07
47742;BME280;33504;52.066;6.096;2022-08-11T03:36:16;102263.65;;;19.82;39.19
47742;BME280;33504;52.066;6.096;2022-08-11T03:39:00;102262.48;;;20.25;39.46
47742;BME280;33504;52.066;6.096;2022-08-11T03:41:35;102262.77;;;20.18;39.49
47742;BME280;33504;52.066;6.096;2022-08-11T03:44:17;102264.07;;;20.14;39.66
47742;BME280;33504;52.066;6.096;2022-08-11T03:46:59;102263.04;;;20.07;39.79
47742;BME280;33504;52.066;6.096;2022-08-11T03:49:38;102261.67;;;20.05;39.87
47742;BME280;33504;52.066;6.096;2022-08-11T03:52:17;102257.83;;;20.01;40.09
47742;BME280;33504;52.066;6.096;2022-08-11T03:54:59;102258.09;;;20.02;40.17
47742;BME280;33504;52.066;6.096;2022-08-11T03:57:49;102257.17;;;19.77;40.15
47742;BME280;33504;52.066;6.096;2022-08-11T04:00:44;102258.47;;;19.95;40.29
47742;BME280;33504;52.066;6.096;2022-08-11T04:04:43;102253.71;;;20.85;40.42
47742;BME280;33504;52.066;6.096;2022-08-11T04:07:40;102251.86;;;20.04;40.67
47742;BME280;33504;52.066;6.096;2022-08-11T04:10:39;102250.45;;;19.84;40.64
47742;BME280;33504;52.066;6.096;2022-08-11T04:15:03;102252.66;;;20.30;40.73
47742;BME280;33504;52.066;6.096;2022-08-11T04:17:50;102250.08;;;19.68;41.02
47742;BME280;33504;52.066;6.096;2022-08-11T04:20:48;102246.49;;;19.70;40.95
47742;BME280;33504;52.066;6.096;2022-08-11T04:23:29;102247.75;;;19.94;40.98
47742;BME280;33504;52.066;6.096;2022-08-11T04:26:29;102247.01;;;19.73;40.94
47742;BME280;33504;52.066;6.096;2022-08-11T04:29:09;102248.30;;;19.91;41.06
47742;BME280;33504;52.066;6.096;2022-08-11T04:31:55;102244.09;;;19.70;41.17
47742;BME280;33504;52.066;6.096;2022-08-11T04:34:35;102239.32;;;19.69;41.19
47742;BME280;33504;52.066;6.096;2022-08-11T04:37:17;102236.22;;;19.66;41.28
47742;BME280;33504;52.066;6.096;2022-08-11T04:40:24;102238.37;;;19.89;41.45
47742;BME280;33504;52.066;6.096;2022-08-11T04:43:45;102241.92;;;19.68;41.41
47742;BME280;33504;52.066;6.096;2022-08-11T04:47:42;102240.25;;;19.88;41.37
47742;BME280;33504;52.066;6.096;2022-08-11T04:50:24;102242.06;;;19.58;41.53
47742;BME280;33504;52.066;6.096;2022-08-11T04:53:09;102242.76;;;19.63;41.50
47742;BME280;33504;52.066;6.096;2022-08-11T04:55:58;102241.64;;;19.65;41.47
47742;BME280;33504;52.066;6.096;2022-08-11T04:58:48;102242.09;;;19.67;41.47
47742;BME280;33504;52.066;6.096;2022-08-11T05:01:25;102239.50;;;19.69;41.51
47742;BME280;33504;52.066;6.096;2022-08-11T05:04:15;102245.96;;;19.71;41.56
47742;BME280;33504;52.066;6.096;2022-08-11T05:09:03;102251.56;;;20.47;41.85
47742;BME280;33504;52.066;6.096;2022-08-11T05:11:49;102252.67;;;19.47;41.90
47742;BME280;33504;52.066;6.096;2022-08-11T05:14:29;102249.62;;;19.76;41.81
47742;BME280;33504;52.066;6.096;2022-08-11T05:17:00;102246.61;;;19.82;41.81
47742;BME280;33504;52.066;6.096;2022-08-11T05:19:30;102247.83;;;19.87;41.63
47742;BME280;33504;52.066;6.096;2022-08-11T05:21:57;102252.74;;;19.91;41.72
47742;BME280;33504;52.066;6.096;2022-08-11T05:24:30;102252.86;;;19.97;41.63
47742;BME280;33504;52.066;6.096;2022-08-11T05:27:02;102253.21;;;20.26;41.69
47742;BME280;33504;52.066;6.096;2022-08-11T05:29:40;102255.88;;;20.08;41.62
47742;BME280;33504;52.066;6.096;2022-08-11T05:32:11;102259.65;;;20.18;41.66
47742;BME280;33504;52.066;6.096;2022-08-11T05:34:43;102262.33;;;20.23;41.77
47742;BME280;33504;52.066;6.096;2022-08-11T05:37:16;102260.67;;;20.28;41.77
47742;BME280;33504;52.066;6.096;2022-08-11T05:39:48;102257.27;;;20.38;41.78
47742;BME280;33504;52.066;6.096;2022-08-11T05:42:16;102257.51;;;20.45;41.88
47742;BME280;33504;52.066;6.096;2022-08-11T05:44:47;102252.91;;;20.30;41.86
47742;BME280;33504;52.066;6.096;2022-08-11T05:47:24;102251.16;;;20.35;42.04
47742;BME280;33504;52.066;6.096;2022-08-11T05:49:52;102254.44;;;20.48;41.90
47742;BME280;33504;52.066;6.096;2022-08-11T05:52:23;102258.12;;;20.58;41.75
47742;BME280;33504;52.066;6.096;2022-08-11T05:54:50;102258.78;;;20.48;41.61
47742;BME280;33504;52.066;6.096;2022-08-11T05:57:18;102262.13;;;20.57;41.51
47742;BME280;33504;52.066;6.096;2022-08-11T05:59:46;102261.37;;;20.90;41.74
47742;BME280;33504;52.066;6.096;2022-08-11T06:02:15;102257.49;;;21.23;41.69
47742;BME280;33504;52.066;6.096;2022-08-11T06:04:42;102257.51;;;21.36;41.48
47742;BME280;33504;52.066;6.096;2022-08-11T06:07:11;102257.60;;;21.04;41.31
47742;BME280;33504;52.066;6.096;2022-08-11T06:09:47;102258.31;;;21.14;41.09
47742;BME280;33504;52.066;6.096;2022-08-11T06:12:17;102259.11;;;21.31;40.99
47742;BME280;33504;52.066;6.096;2022-08-11T06:14:49;102261.90;;;21.47;40.75
47742;BME280;33504;52.066;6.096;2022-08-11T06:17:21;102262.99;;;21.64;40.65
47742;BME280;33504;52.066;6.096;2022-08-11T06:19:49;102261.38;;;21.54;40.26
47742;BME280;33504;52.066;6.096;2022-08-11T06:22:19;102257.19;;;21.68;40.21
47742;BME280;33504;52.066;6.096;2022-08-11T06:24:55;102254.47;;;21.77;39.93
47742;BME280;33504;52.066;6.096;2022-08-11T06:27:23;102252.95;;;21.88;39.84
47742;BME280;33504;52.066;6.096;2022-08-11T06:29:52;102253.73;;;22.04;39.53
47742;BME280;33504;52.066;6.096;2022-08-11T06:32:20;102254.31;;;21.92;39.31
47742;BME280;33504;52.066;6.096;2022-08-11T06:35:00;102255.14;;;22.30;39.34
47742;BME280;33504;52.066;6.096;2022-08-11T06:37:39;102258.01;;;22.42;39.23
47742;BME280;33504;52.066;6.096;2022-08-11T06:40:12;102255.82;;;22.58;39.25
47742;BME280;33504;52.066;6.096;2022-08-11T06:42:50;102255.74;;;22.46;38.98
47742;BME280;33504;52.066;6.096;2022-08-11T06:45:26;102255.68;;;22.69;38.67
47742;BME280;33504;52.066;6.096;2022-08-11T06:47:55;102257.22;;;22.89;38.41
47742;BME280;33504;52.066;6.096;2022-08-11T06:50:23;102258.33;;;22.86;38.29
47742;BME280;33504;52.066;6.096;2022-08-11T06:52:52;102252.81;;;23.08;38.09
47742;BME280;33504;52.066;6.096;2022-08-11T06:55:22;102256.05;;;23.04;38.00
47742;BME280;33504;52.066;6.096;2022-08-11T06:57:49;102256.76;;;22.97;37.43
47742;BME280;33504;52.066;6.096;2022-08-11T07:00:18;102257.43;;;23.46;37.11
47742;BME280;33504;52.066;6.096;2022-08-11T07:02:51;102258.44;;;23.68;36.86
47742;BME280;33504;52.066;6.096;2022-08-11T07:05:22;102259.87;;;23.59;36.54
47742;BME280;33504;52.066;6.096;2022-08-11T07:11:10;102254.02;;;24.11;36.00
47742;BME280;33504;52.066;6.096;2022-08-11T07:13:45;102257.27;;;24.42;35.91
47742;BME280;33504;52.066;6.096;2022-08-11T07:16:15;102255.43;;;24.43;34.87
47742;BME280;33504;52.066;6.096;2022-08-11T07:18:46;102251.57;;;24.62;34.69
47742;BME280;33504;52.066;6.096;2022-08-11T07:21:19;102249.18;;;24.82;34.38
47742;BME280;33504;52.066;6.096;2022-08-11T07:23:48;102249.25;;;25.06;33.56
47742;BME280;33504;52.066;6.096;2022-08-11T07:26:16;102247.54;;;25.34;33.28
47742;BME280;33504;52.066;6.096;2022-08-11T07:28:47;102252.99;;;25.67;32.97
47742;BME280;33504;52.066;6.096;2022-08-11T07:31:20;102250.72;;;25.73;32.45
47742;BME280;33504;52.066;6.096;2022-08-11T07:33:54;102250.15;;;25.53;32.10
47742;BME280;33504;52.066;6.096;2022-08-11T07:36:26;102251.06;;;26.06;31.84
47742;BME280;33504;52.066;6.096;2022-08-11T07:38:55;102251.55;;;26.17;31.43
47742;BME280;33504;52.066;6.096;2022-08-11T07:41:23;102251.88;;;26.31;30.64
47742;BME280;33504;52.066;6.096;2022-08-11T07:43:54;102255.65;;;26.66;30.40
47742;BME280;33504;52.066;6.096;2022-08-11T07:46:23;102248.66;;;26.56;29.61
47742;BME280;33504;52.066;6.096;2022-08-11T07:48:51;102249.17;;;26.97;29.20
47742;BME280;33504;52.066;6.096;2022-08-11T07:51:19;102248.49;;;27.37;28.42
47742;BME280;33504;52.066;6.096;2022-08-11T07:53:46;102245.40;;;27.16;28.10
47742;BME280;33504;52.066;6.096;2022-08-11T07:56:15;102243.01;;;26.99;27.71
47742;BME280;33504;52.066;6.096;2022-08-11T07:58:43;102241.30;;;27.35;27.59
47742;BME280;33504;52.066;6.096;2022-08-11T08:01:11;102242.08;;;27.78;27.64
47742;BME280;33504;52.066;6.096;2022-08-11T08:03:40;102239.42;;;27.92;27.22
47742;BME280;33504;52.066;6.096;2022-08-11T08:06:09;102235.96;;;27.73;27.17
47742;BME280;33504;52.066;6.096;2022-08-11T08:08:37;102235.26;;;28.00;26.88
47742;BME280;33504;52.066;6.096;2022-08-11T08:11:07;102234.39;;;28.41;26.28
47742;BME280;33504;52.066;6.096;2022-08-11T08:13:34;102239.84;;;28.78;26.52
47742;BME280;33504;52.066;6.096;2022-08-11T08:16:03;102237.41;;;28.73;25.38
47742;BME280;33504;52.066;6.096;2022-08-11T08:18:34;102235.91;;;28.76;24.95
47742;BME280;33504;52.066;6.096;2022-08-11T08:21:03;102233.67;;;29.08;24.64
47742;BME280;33504;52.066;6.096;2022-08-11T08:23:30;102233.63;;;29.41;24.84
47742;BME280;33504;52.066;6.096;2022-08-11T08:25:59;102228.27;;;29.65;24.78
47742;BME280;33504;52.066;6.096;2022-08-11T08:28:27;102229.08;;;29.98;24.60
47742;BME280;33504;52.066;6.096;2022-08-11T08:30:55;102231.51;;;30.24;24.65
47742;BME280;33504;52.066;6.096;2022-08-11T08:33:25;102229.77;;;30.17;23.90
47742;BME280;33504;52.066;6.096;2022-08-11T08:35:55;102230.41;;;30.19;23.57
47742;BME280;33504;52.066;6.096;2022-08-11T08:38:23;102229.99;;;30.70;23.76
47742;BME280;33504;52.066;6.096;2022-08-11T08:40:51;102231.03;;;30.70;23.08
47742;BME280;33504;52.066;6.096;2022-08-11T08:43:21;102230.85;;;30.93;22.91
47742;BME280;33504;52.066;6.096;2022-08-11T08:45:52;102228.87;;;31.27;22.55
47742;BME280;33504;52.066;6.096;2022-08-11T08:48:23;102233.12;;;30.82;22.08
47742;BME280;33504;52.066;6.096;2022-08-11T08:50:55;102231.87;;;30.94;21.59
47742;BME280;33504;52.066;6.096;2022-08-11T08:53:27;102229.63;;;31.51;22.02
47742;BME280;33504;52.066;6.096;2022-08-11T08:55:57;102230.17;;;31.73;22.00
47742;BME280;33504;52.066;6.096;2022-08-11T08:58:25;102224.75;;;31.63;21.38
47742;BME280;33504;52.066;6.096;2022-08-11T09:00:54;102227.22;;;31.62;21.13
47742;BME280;33504;52.066;6.096;2022-08-11T09:03:23;102222.80;;;31.62;20.90
47742;BME280;33504;52.066;6.096;2022-08-11T09:05:53;102223.63;;;32.09;20.57
47742;BME280;33504;52.066;6.096;2022-08-11T09:08:21;102220.24;;;32.00;20.23
47742;BME280;33504;52.066;6.096;2022-08-11T09:10:49;102226.11;;;31.97;20.12
47742;BME280;33504;52.066;6.096;2022-08-11T09:13:17;102227.55;;;32.36;20.64
47742;BME280;33504;52.066;6.096;2022-08-11T09:15:45;102228.72;;;32.70;20.87
47742;BME280;33504;52.066;6.096;2022-08-11T09:18:12;102225.53;;;32.70;20.17
47742;BME280;33504;52.066;6.096;2022-08-11T09:20:39;102225.73;;;32.65;19.48
47742;BME280;33504;52.066;6.096;2022-08-11T09:23:08;102226.52;;;32.95;19.43
47742;BME280;33504;52.066;6.096;2022-08-11T09:25:35;102223.74;;;33.50;19.54
47742;BME280;33504;52.066;6.096;2022-08-11T09:28:03;102219.43;;;33.51;19.41
47742;BME280;33504;52.066;6.096;2022-08-11T09:30:31;102216.21;;;33.35;19.60
47742;BME280;33504;52.066;6.096;2022-08-11T09:33:00;102217.09;;;33.97;19.75
47742;BME280;33504;52.066;6.096;2022-08-11T09:35:29;102212.76;;;33.97;19.23
47742;BME280;33504;52.066;6.096;2022-08-11T09:37:57;102214.08;;;33.98;18.87
47742;BME280;33504;52.066;6.096;2022-08-11T09:40:25;102213.58;;;33.85;18.31
47742;BME280;33504;52.066;6.096;2022-08-11T09:42:53;102208.76;;;33.78;18.86
47742;BME280;33504;52.066;6.096;2022-08-11T09:45:20;102205.45;;;34.52;18.75
47742;BME280;33504;52.066;6.096;2022-08-11T09:47:47;102203.33;;;34.05;18.77
47742;BME280;33504;52.066;6.096;2022-08-11T09:50:15;102197.96;;;33.99;18.29
47742;BME280;33504;52.066;6.096;2022-08-11T09:52:43;102201.97;;;34.30;17.78
47742;BME280;33504;52.066;6.096;2022-08-11T09:55:15;102195.96;;;34.43;17.22
47742;BME280;33504;52.066;6.096;2022-08-11T09:57:45;102190.22;;;33.96;17.13
47742;BME280;33504;52.066;6.096;2022-08-11T10:00:14;102192.14;;;34.22;17.37
47742;BME280;33504;52.066;6.096;2022-08-11T10:02:44;102190.51;;;34.81;17.09
47742;BME280;33504;52.066;6.096;2022-08-11T10:05:16;102189.32;;;34.32;16.98
47742;BME280;33504;52.066;6.096;2022-08-11T10:07:45;102184.31;;;34.85;16.67
47742;BME280;33504;52.066;6.096;2022-08-11T10:10:13;102181.78;;;34.80;16.31
47742;BME280;33504;52.066;6.096;2022-08-11T10:12:46;102180.23;;;34.83;16.87
47742;BME280;33504;52.066;6.096;2022-08-11T10:15:16;102184.18;;;35.02;16.13
47742;BME280;33504;52.066;6.096;2022-08-11T10:17:48;102178.12;;;34.69;15.65
47742;BME280;33504;52.066;6.096;2022-08-11T10:20:20;102177.58;;;35.13;15.31
47742;BME280;33504;52.066;6.096;2022-08-11T10:22:47;102180.66;;;35.12;15.85
47742;BME280;33504;52.066;6.096;2022-08-11T10:25:15;102172.87;;;34.94;15.84
47742;BME280;33504;52.066;6.096;2022-08-11T10:27:42;102175.36;;;34.94;15.41
47742;BME280;33504;52.066;6.096;2022-08-11T10:30:10;102176.80;;;35.10;15.69
47742;BME280;33504;52.066;6.096;2022-08-11T10:32:38;102164.55;;;35.15;15.44
47742;BME280;33504;52.066;6.096;2022-08-11T10:35:06;102167.35;;;35.69;15.92
47742;BME280;33504;52.066;6.096;2022-08-11T10:37:35;102165.96;;;35.55;14.99
47742;BME280;33504;52.066;6.096;2022-08-11T10:40:04;102161.75;;;35.91;14.44
47742;BME280;33504;52.066;6.096;2022-08-11T10:42:33;102160.83;;;36.39;14.61
47742;BME280;33504;52.066;6.096;2022-08-11T10:45:03;102164.50;;;36.68;14.38
47742;BME280;33504;52.066;6.096;2022-08-11T10:47:30;102154.80;;;35.70;14.96
47742;BME280;33504;52.066;6.096;2022-08-11T10:49:58;102155.05;;;36.71;14.14
47742;BME280;33504;52.066;6.096;2022-08-11T10:52:27;102156.17;;;36.57;14.15
47742;BME280;33504;52.066;6.096;2022-08-11T10:54:54;102147.05;;;36.58;13.99
47742;BME280;33504;52.066;6.096;2022-08-11T10:57:22;102149.41;;;36.43;14.00
47742;BME280;33504;52.066;6.096;2022-08-11T10:59:49;102151.35;;;36.82;13.35
47742;BME280;33504;52.066;6.096;2022-08-11T11:02:18;102145.44;;;36.55;13.33
47742;BME280;33504;52.066;6.096;2022-08-11T11:04:58;102141.23;;;36.52;13.25
47742;BME280;33504;52.066;6.096;2022-08-11T11:07:37;102143.33;;;37.12;13.67
47742;BME280;33504;52.066;6.096;2022-08-11T11:10:06;102139.87;;;37.01;13.39
47742;BME280;33504;52.066;6.096;2022-08-11T11:12:35;102138.46;;;37.13;13.04
47742;BME280;33504;52.066;6.096;2022-08-11T11:15:05;102134.70;;;37.54;12.56
47742;BME280;33504;52.066;6.096;2022-08-11T11:17:37;102136.24;;;37.05;12.75
47742;BME280;33504;52.066;6.096;2022-08-11T11:20:06;102133.40;;;36.92;13.11
47742;BME280;33504;52.066;6.096;2022-08-11T11:22:34;102129.58;;;37.27;12.70
47742;BME280;33504;52.066;6.096;2022-08-11T11:25:12;102126.68;;;37.48;12.63
47742;BME280;33504;52.066;6.096;2022-08-11T11:27:54;102124.70;;;37.21;12.30
47742;BME280;33504;52.066;6.096;2022-08-11T11:30:30;102121.65;;;37.78;11.95
47742;BME280;33504;52.066;6.096;2022-08-11T11:33:04;102121.93;;;37.42;11.77
47742;BME280;33504;52.066;6.096;2022-08-11T11:35:44;102119.12;;;37.60;11.83
47742;BME280;33504;52.066;6.096;2022-08-11T11:38:13;102113.97;;;37.85;12.39
47742;BME280;33504;52.066;6.096;2022-08-11T11:40:42;102109.81;;;37.78;11.73
47742;BME280;33504;52.066;6.096;2022-08-11T11:43:09;102108.78;;;38.55;12.41
47742;BME280;33504;52.066;6.096;2022-08-11T11:45:40;102106.70;;;38.27;11.63
47742;BME280;33504;52.066;6.096;2022-08-11T11:48:07;102108.62;;;38.27;11.66
47742;BME280;33504;52.066;6.096;2022-08-11T11:50:35;102109.48;;;38.35;11.64
47742;BME280;33504;52.066;6.096;2022-08-11T11:53:06;102105.37;;;38.63;11.64
47742;BME280;33504;52.066;6.096;2022-08-11T11:55:34;102101.46;;;38.77;11.43
47742;BME280;33504;52.066;6.096;2022-08-11T11:58:03;102101.85;;;38.71;11.39
47742;BME280;33504;52.066;6.096;2022-08-11T12:00:30;102098.91;;;38.26;10.89
47742;BME280;33504;52.066;6.096;2022-08-11T12:03:00;102097.36;;;38.55;10.41
47742;BME280;33504;52.066;6.096;2022-08-11T12:05:27;102098.33;;;37.79;11.23
47742;BME280;33504;52.066;6.096;2022-08-11T12:07:57;102097.99;;;38.37;11.53
47742;BME280;33504;52.066;6.096;2022-08-11T12:10:24;102099.66;;;38.44;11.72
47742;BME280;33504;52.066;6.096;2022-08-11T12:12:52;102092.58;;;38.32;11.41
47742;BME280;33504;52.066;6.096;2022-08-11T12:15:19;102089.44;;;38.28;11.39
47742;BME280;33504;52.066;6.096;2022-08-11T12:17:46;102084.36;;;38.52;10.87
47742;BME280;33504;52.066;6.096;2022-08-11T12:20:16;102079.84;;;38.24;10.99
47742;BME280;33504;52.066;6.096;2022-08-11T12:22:43;102082.99;;;38.79;11.07
47742;BME280;33504;52.066;6.096;2022-08-11T12:25:10;102080.64;;;38.68;11.18
47742;BME280;33504;52.066;6.096;2022-08-11T12:27:38;102074.06;;;38.67;11.23
47742;BME280;33504;52.066;6.096;2022-08-11T12:30:06;102071.15;;;38.53;10.82
47742;BME280;33504;52.066;6.096;2022-08-11T12:32:35;102069.34;;;38.63;10.70
47742;BME280;33504;52.066;6.096;2022-08-11T12:35:05;102057.16;;;39.12;11.08
47742;BME280;33504;52.066;6.096;2022-08-11T12:37:36;102060.86;;;39.07;10.89
47742;BME280;33504;52.066;6.096;2022-08-11T12:40:08;102054.18;;;38.92;10.57
47742;BME280;33504;52.066;6.096;2022-08-11T12:42:37;102052.77;;;39.37;10.12
47742;BME280;33504;52.066;6.096;2022-08-11T12:45:09;102048.89;;;39.67;10.74
47742;BME280;33504;52.066;6.096;2022-08-11T12:47:37;102050.17;;;38.27;10.86
47742;BME280;33504;52.066;6.096;2022-08-11T12:50:05;102044.11;;;38.74;10.98
47742;BME280;33504;52.066;6.096;2022-08-11T12:52:42;102045.40;;;39.41;10.37
47742;BME280;33504;52.066;6.096;2022-08-11T12:55:12;102039.98;;;38.77;10.72
47742;BME280;33504;52.066;6.096;2022-08-11T12:57:44;102031.44;;;39.09;11.13
47742;BME280;33504;52.066;6.096;2022-08-11T13:00:13;102027.43;;;39.64;10.70
47742;BME280;33504;52.066;6.096;2022-08-11T13:02:41;102026.04;;;39.66;10.42
47742;BME280;33504;52.066;6.096;2022-08-11T13:05:12;102022.53;;;39.66;10.86
47742;BME280;33504;52.066;6.096;2022-08-11T13:07:41;102021.49;;;39.56;10.19
47742;BME280;33504;52.066;6.096;2022-08-11T13:10:11;102026.09;;;39.90;10.30
47742;BME280;33504;52.066;6.096;2022-08-11T13:12:41;102019.32;;;39.48;10.27
47742;BME280;33504;52.066;6.096;2022-08-11T13:15:10;102016.98;;;40.38;9.90
47742;BME280;33504;52.066;6.096;2022-08-11T13:17:40;102015.52;;;40.00;10.55
47742;BME280;33504;52.066;6.096;2022-08-11T13:20:09;102013.64;;;40.51;10.51
47742;BME280;33504;52.066;6.096;2022-08-11T13:22:40;102009.83;;;40.33;9.22
47742;BME280;33504;52.066;6.096;2022-08-11T13:25:08;102013.36;;;40.43;9.04
47742;BME280;33504;52.066;6.096;2022-08-11T13:27:35;102009.01;;;40.32;8.87
47742;BME280;33504;52.066;6.096;2022-08-11T13:30:04;102011.98;;;40.35;9.57
47742;BME280;33504;52.066;6.096;2022-08-11T13:32:31;102012.16;;;40.55;10.00
47742;BME280;33504;52.066;6.096;2022-08-11T13:34:58;102013.92;;;40.96;9.42
47742;BME280;33504;52.066;6.096;2022-08-11T13:37:25;102008.93;;;41.06;9.62